Naples, Kentucky
Current Conditions -  °F | °C
As of 10:51 AM on Sunday 21 Dec 2014 (Local Time) from KHTS Reporting Station
Broken Clouds Broken Clouds  
Wind Chill: 33°   Ceiling: 1700
Heat Index: 33°   Visibility: 10mi
Dew Point: 27°   Wind: 3mph
Humidity: 78%   Direction: 90°E
Pressure: 30.31"   Gusts: NA
Location:  38.4314°N, 82.6662°W
Report Text: KHTS 211551Z 09003KT 10SM BKN017 01/M03 A3031 RMK AO2 SLP272 T00061028
Loading
Personal Weather Stations






























Interactive Weather Map New forecast layout! Learn more

10-Day Weather Forecast

Advertisements
Track Severe Weather on mobile